createdAt,value
2022-10-04T00:59:36.029Z,100799.75
2022-10-04T01:21:19.105Z,100782.63
2022-10-04T01:42:50.418Z,100778.72
2022-10-04T01:53:28.772Z,100765.78
2022-10-04T02:03:35.998Z,100801.09
2022-10-04T02:13:41.009Z,100796.16
2022-10-04T02:23:45.158Z,100798.44
2022-10-04T02:33:52.403Z,100825.44
2022-10-04T02:44:41.187Z,100818.50
2022-10-04T02:55:15.443Z,100806.16
2022-10-04T03:05:19.142Z,100794.31
2022-10-04T03:15:22.425Z,100806.16
2022-10-04T03:25:35.263Z,100801.28
2022-10-04T03:35:40.651Z,100786.16
2022-10-04T03:45:44.038Z,100792.50
2022-10-04T03:55:47.025Z,100798.34
2022-10-04T04:05:54.513Z,100788.06
2022-10-04T04:16:01.855Z,100798.63
2022-10-04T04:26:25.447Z,100791.22
2022-10-04T04:36:30.839Z,100792.63
2022-10-04T04:46:33.927Z,100814.38
2022-10-04T04:56:36.917Z,100837.47
2022-10-04T05:06:45.636Z,100841.84
2022-10-04T05:16:54.585Z,100846.13
2022-10-04T05:27:01.644Z,100842.62
2022-10-04T05:37:35.615Z,100854.37
2022-10-04T05:47:42.487Z,100857.87
2022-10-04T05:58:10.384Z,100865.25
2022-10-04T06:08:33.985Z,100878.75
2022-10-04T06:30:15.931Z,100883.09
2022-10-04T06:40:47.449Z,100887.50
2022-10-04T06:51:16.074Z,100888.19
2022-10-04T07:01:34.386Z,100913.69
2022-10-04T07:11:55.478Z,100912.66
2022-10-04T07:22:08.308Z,100937.28
2022-10-04T07:32:17.894Z,100946.59
2022-10-04T07:42:37.435Z,100959.09
2022-10-04T07:53:09.300Z,100953.38
2022-10-04T08:03:24.925Z,100971.50
2022-10-04T08:13:39.919Z,100970.13
2022-10-04T08:24:02.691Z,100980.06
2022-10-04T08:34:24.003Z,100986.56
2022-10-04T08:44:58.175Z,100997.00
2022-10-04T08:55:11.864Z,100999.72
2022-10-04T09:05:56.245Z,101007.00
2022-10-04T09:16:25.205Z,101015.12
2022-10-04T09:26:43.944Z,101025.50
2022-10-04T09:37:26.033Z,101020.75
2022-10-04T09:47:51.263Z,101029.03
2022-10-04T09:58:03.356Z,101030.47
2022-10-04T10:08:50.694Z,101022.88
2022-10-04T10:19:13.121Z,101038.25
2022-10-04T10:29:54.431Z,101030.13
2022-10-04T10:40:08.170Z,101048.00
2022-10-04T10:50:31.293Z,101035.62
2022-10-04T11:00:53.393Z,101061.09
2022-10-04T11:11:08.895Z,101060.25
2022-10-04T11:21:46.900Z,101076.19
2022-10-04T11:32:02.118Z,101080.16
2022-10-04T11:42:28.237Z,101069.34
2022-10-04T11:52:49.659Z,101064.94
2022-10-04T12:03:09.504Z,101065.00
2022-10-04T12:13:38.045Z,101067.06
2022-10-04T12:23:59.665Z,101070.97
2022-10-04T12:34:14.939Z,101065.59
2022-10-04T12:44:41.000Z,101078.75
2022-10-04T12:55:03.900Z,101072.75
2022-10-04T13:05:17.439Z,101085.22
2022-10-04T13:26:15.740Z,101092.22
2022-10-04T13:36:46.526Z,101092.81
2022-10-04T13:47:40.493Z,101100.47
2022-10-04T13:57:55.191Z,101110.34
2022-10-04T14:08:48.462Z,101108.41
2022-10-04T14:19:07.118Z,101122.22
2022-10-04T14:29:28.634Z,101133.22
2022-10-04T14:50:51.428Z,101151.25
2022-10-04T15:00:57.411Z,101158.84
2022-10-04T15:11:14.655Z,101172.31
2022-10-04T15:21:53.417Z,101190.81
2022-10-04T15:32:31.884Z,101209.31
2022-10-04T15:42:39.775Z,101224.22
2022-10-04T15:53:23.465Z,101240.87
2022-10-04T16:04:08.076Z,101245.03
2022-10-04T16:14:34.184Z,101256.69
2022-10-04T16:24:53.379Z,101264.75
2022-10-04T16:35:37.382Z,101271.66
2022-10-04T16:45:44.848Z,101278.78
2022-10-04T16:56:02.469Z,101279.97
2022-10-04T17:06:16.305Z,101305.34
2022-10-04T17:16:47.690Z,101304.41
2022-10-04T17:27:09.852Z,101331.87
2022-10-04T17:37:33.948Z,101344.44
2022-10-04T17:48:02.991Z,101358.41
2022-10-04T17:58:17.850Z,101365.47
